sensor_id;sensor_type;location;lat;lon;timestamp;temperature;humidity
63047;DHT22;62025;39.238;9.126;2023-07-16T00:00:09;29.40;67.50
63047;DHT22;62025;39.238;9.126;2023-07-16T00:02:38;29.40;67.60
63047;DHT22;62025;39.238;9.126;2023-07-16T00:05:04;29.40;67.60
63047;DHT22;62025;39.238;9.126;2023-07-16T00:07:31;29.40;67.80
63047;DHT22;62025;39.238;9.126;2023-07-16T00:09:57;29.40;67.70
63047;DHT22;62025;39.238;9.126;2023-07-16T00:12:23;29.40;67.60
63047;DHT22;62025;39.238;9.126;2023-07-16T00:14:49;29.40;67.60
63047;DHT22;62025;39.238;9.126;2023-07-16T00:17:15;29.40;68.10
63047;DHT22;62025;39.238;9.126;2023-07-16T00:19:42;29.40;68.60
63047;DHT22;62025;39.238;9.126;2023-07-16T00:22:08;29.40;68.50
63047;DHT22;62025;39.238;9.126;2023-07-16T00:24:34;29.40;68.10
63047;DHT22;62025;39.238;9.126;2023-07-16T00:27:00;29.40;67.00
63047;DHT22;62025;39.238;9.126;2023-07-16T00:29:26;29.30;66.00
63047;DHT22;62025;39.238;9.126;2023-07-16T00:31:52;29.30;65.20
63047;DHT22;62025;39.238;9.126;2023-07-16T00:34:18;29.30;64.50
63047;DHT22;62025;39.238;9.126;2023-07-16T00:36:44;29.40;63.50
63047;DHT22;62025;39.238;9.126;2023-07-16T00:39:10;29.40;62.80
63047;DHT22;62025;39.238;9.126;2023-07-16T00:41:36;29.40;62.20
63047;DHT22;62025;39.238;9.126;2023-07-16T00:44:02;29.40;62.10
63047;DHT22;62025;39.238;9.126;2023-07-16T00:46:28;29.30;62.00
63047;DHT22;62025;39.238;9.126;2023-07-16T00:48:54;29.40;62.00
63047;DHT22;62025;39.238;9.126;2023-07-16T00:51:22;29.40;62.00
63047;DHT22;62025;39.238;9.126;2023-07-16T00:53:50;29.40;62.10
63047;DHT22;62025;39.238;9.126;2023-07-16T00:56:17;29.40;62.70
63047;DHT22;62025;39.238;9.126;2023-07-16T00:58:44;29.30;64.10
63047;DHT22;62025;39.238;9.126;2023-07-16T01:01:10;29.20;64.80
63047;DHT22;62025;39.238;9.126;2023-07-16T01:03:36;29.30;65.10
63047;DHT22;62025;39.238;9.126;2023-07-16T01:06:16;29.30;65.20
63047;DHT22;62025;39.238;9.126;2023-07-16T01:08:49;29.30;65.60
63047;DHT22;62025;39.238;9.126;2023-07-16T01:11:21;29.40;65.30
63047;DHT22;62025;39.238;9.126;2023-07-16T01:13:48;29.40;65.10
63047;DHT22;62025;39.238;9.126;2023-07-16T01:16:21;29.30;64.30
63047;DHT22;62025;39.238;9.126;2023-07-16T01:18:48;29.20;62.20
63047;DHT22;62025;39.238;9.126;2023-07-16T01:21:24;29.20;62.30
63047;DHT22;62025;39.238;9.126;2023-07-16T01:29:53;29.20;61.60
63047;DHT22;62025;39.238;9.126;2023-07-16T01:32:21;29.20;61.80
63047;DHT22;62025;39.238;9.126;2023-07-16T01:34:48;29.20;61.70
63047;DHT22;62025;39.238;9.126;2023-07-16T01:37:16;29.10;62.10
63047;DHT22;62025;39.238;9.126;2023-07-16T01:39:42;29.20;62.10
63047;DHT22;62025;39.238;9.126;2023-07-16T01:42:10;29.20;62.00
63047;DHT22;62025;39.238;9.126;2023-07-16T01:44:36;29.20;61.90
63047;DHT22;62025;39.238;9.126;2023-07-16T01:47:12;29.20;61.70
63047;DHT22;62025;39.238;9.126;2023-07-16T01:49:41;29.10;61.70
63047;DHT22;62025;39.238;9.126;2023-07-16T01:52:08;29.10;61.70
63047;DHT22;62025;39.238;9.126;2023-07-16T01:54:35;29.10;61.40
63047;DHT22;62025;39.238;9.126;2023-07-16T01:57:01;29.10;60.90
63047;DHT22;62025;39.238;9.126;2023-07-16T01:59:28;29.20;61.00
63047;DHT22;62025;39.238;9.126;2023-07-16T02:01:55;29.20;60.80
63047;DHT22;62025;39.238;9.126;2023-07-16T02:04:22;29.10;60.60
63047;DHT22;62025;39.238;9.126;2023-07-16T02:06:48;29.10;60.60
63047;DHT22;62025;39.238;9.126;2023-07-16T02:09:19;29.10;60.90
63047;DHT22;62025;39.238;9.126;2023-07-16T02:11:46;29.00;60.80
63047;DHT22;62025;39.238;9.126;2023-07-16T02:14:12;29.00;61.00
63047;DHT22;62025;39.238;9.126;2023-07-16T02:16:39;29.00;60.90
63047;DHT22;62025;39.238;9.126;2023-07-16T02:19:05;29.00;61.00
63047;DHT22;62025;39.238;9.126;2023-07-16T02:21:31;29.00;60.80
63047;DHT22;62025;39.238;9.126;2023-07-16T02:23:57;28.90;61.00
63047;DHT22;62025;39.238;9.126;2023-07-16T02:26:25;28.90;61.00
63047;DHT22;62025;39.238;9.126;2023-07-16T02:28:51;29.00;60.90
63047;DHT22;62025;39.238;9.126;2023-07-16T02:31:17;29.00;60.90
63047;DHT22;62025;39.238;9.126;2023-07-16T02:33:43;29.00;60.90
63047;DHT22;62025;39.238;9.126;2023-07-16T02:36:09;28.90;61.00
63047;DHT22;62025;39.238;9.126;2023-07-16T02:38:35;28.90;61.00
63047;DHT22;62025;39.238;9.126;2023-07-16T02:41:01;28.90;61.00
63047;DHT22;62025;39.238;9.126;2023-07-16T02:43:27;28.90;60.90
63047;DHT22;62025;39.238;9.126;2023-07-16T02:45:53;28.90;60.90
63047;DHT22;62025;39.238;9.126;2023-07-16T02:48:19;28.80;61.10
63047;DHT22;62025;39.238;9.126;2023-07-16T02:50:44;28.80;61.00
63047;DHT22;62025;39.238;9.126;2023-07-16T02:53:11;28.80;61.00
63047;DHT22;62025;39.238;9.126;2023-07-16T02:55:37;28.80;61.00
63047;DHT22;62025;39.238;9.126;2023-07-16T02:58:03;28.80;60.80
63047;DHT22;62025;39.238;9.126;2023-07-16T03:00:33;28.80;60.90
63047;DHT22;62025;39.238;9.126;2023-07-16T03:03:00;28.70;61.00
63047;DHT22;62025;39.238;9.126;2023-07-16T03:05:27;28.80;60.80
63047;DHT22;62025;39.238;9.126;2023-07-16T03:07:54;28.80;60.90
63047;DHT22;62025;39.238;9.126;2023-07-16T03:10:21;28.80;60.80
63047;DHT22;62025;39.238;9.126;2023-07-16T03:12:47;28.70;60.80
63047;DHT22;62025;39.238;9.126;2023-07-16T03:15:14;28.70;60.70
63047;DHT22;62025;39.238;9.126;2023-07-16T03:17:40;28.70;60.90
63047;DHT22;62025;39.238;9.126;2023-07-16T03:20:06;28.70;61.10
63047;DHT22;62025;39.238;9.126;2023-07-16T03:22:33;28.70;61.10
63047;DHT22;62025;39.238;9.126;2023-07-16T03:24:59;28.60;61.10
63047;DHT22;62025;39.238;9.126;2023-07-16T03:27:26;28.70;60.90
63047;DHT22;62025;39.238;9.126;2023-07-16T03:29:57;28.70;60.70
63047;DHT22;62025;39.238;9.126;2023-07-16T03:32:23;28.70;60.50
63047;DHT22;62025;39.238;9.126;2023-07-16T03:34:49;28.70;60.50
63047;DHT22;62025;39.238;9.126;2023-07-16T03:37:15;28.70;60.50
63047;DHT22;62025;39.238;9.126;2023-07-16T03:39:41;28.70;60.30
63047;DHT22;62025;39.238;9.126;2023-07-16T03:42:07;28.60;60.00
63047;DHT22;62025;39.238;9.126;2023-07-16T03:44:33;28.60;59.80
63047;DHT22;62025;39.238;9.126;2023-07-16T03:47:01;28.60;59.80
63047;DHT22;62025;39.238;9.126;2023-07-16T03:49:28;28.60;59.80
63047;DHT22;62025;39.238;9.126;2023-07-16T03:51:54;28.60;59.60
63047;DHT22;62025;39.238;9.126;2023-07-16T03:54:19;28.60;59.70
63047;DHT22;62025;39.238;9.126;2023-07-16T03:56:46;28.60;59.60
63047;DHT22;62025;39.238;9.126;2023-07-16T03:59:12;28.60;59.60
63047;DHT22;62025;39.238;9.126;2023-07-16T04:01:38;28.50;59.40
63047;DHT22;62025;39.238;9.126;2023-07-16T04:04:04;28.50;59.30
63047;DHT22;62025;39.238;9.126;2023-07-16T04:06:30;28.50;59.40
63047;DHT22;62025;39.238;9.126;2023-07-16T04:08:56;28.40;59.60
63047;DHT22;62025;39.238;9.126;2023-07-16T04:11:21;28.40;59.60
63047;DHT22;62025;39.238;9.126;2023-07-16T04:13:47;28.50;59.50
63047;DHT22;62025;39.238;9.126;2023-07-16T04:16:13;28.50;59.50
63047;DHT22;62025;39.238;9.126;2023-07-16T04:18:39;28.40;59.50
63047;DHT22;62025;39.238;9.126;2023-07-16T04:21:05;28.40;59.40
63047;DHT22;62025;39.238;9.126;2023-07-16T04:23:31;28.40;59.50
63047;DHT22;62025;39.238;9.126;2023-07-16T04:25:57;28.40;59.40
63047;DHT22;62025;39.238;9.126;2023-07-16T04:28:23;28.40;59.40
63047;DHT22;62025;39.238;9.126;2023-07-16T04:30:49;28.40;59.50
63047;DHT22;62025;39.238;9.126;2023-07-16T04:33:15;28.40;59.40
63047;DHT22;62025;39.238;9.126;2023-07-16T04:35:41;28.40;59.50
63047;DHT22;62025;39.238;9.126;2023-07-16T04:38:07;28.40;59.60
63047;DHT22;62025;39.238;9.126;2023-07-16T04:40:33;28.40;59.50
63047;DHT22;62025;39.238;9.126;2023-07-16T04:42:59;28.40;59.40
63047;DHT22;62025;39.238;9.126;2023-07-16T04:45:25;28.40;59.50
63047;DHT22;62025;39.238;9.126;2023-07-16T04:47:51;28.40;59.40
63047;DHT22;62025;39.238;9.126;2023-07-16T04:50:17;28.40;59.40
63047;DHT22;62025;39.238;9.126;2023-07-16T04:52:43;28.40;59.20
63047;DHT22;62025;39.238;9.126;2023-07-16T04:55:09;28.40;58.90
63047;DHT22;62025;39.238;9.126;2023-07-16T04:57:36;28.40;58.40
63047;DHT22;62025;39.238;9.126;2023-07-16T05:00:03;28.40;58.30
63047;DHT22;62025;39.238;9.126;2023-07-16T05:02:32;28.40;58.10
63047;DHT22;62025;39.238;9.126;2023-07-16T05:04:58;28.40;58.30
63047;DHT22;62025;39.238;9.126;2023-07-16T05:07:24;28.40;58.30
63047;DHT22;62025;39.238;9.126;2023-07-16T05:09:50;28.50;58.20
63047;DHT22;62025;39.238;9.126;2023-07-16T05:12:16;28.60;58.10
63047;DHT22;62025;39.238;9.126;2023-07-16T05:14:47;28.60;58.00
63047;DHT22;62025;39.238;9.126;2023-07-16T05:17:14;28.60;57.20
63047;DHT22;62025;39.238;9.126;2023-07-16T05:19:40;28.70;56.90
63047;DHT22;62025;39.238;9.126;2023-07-16T05:22:07;28.70;57.30
63047;DHT22;62025;39.238;9.126;2023-07-16T05:24:33;28.80;57.60
63047;DHT22;62025;39.238;9.126;2023-07-16T05:26:59;28.90;57.70
63047;DHT22;62025;39.238;9.126;2023-07-16T05:29:26;28.90;57.60
63047;DHT22;62025;39.238;9.126;2023-07-16T05:31:52;29.00;57.50
63047;DHT22;62025;39.238;9.126;2023-07-16T05:34:18;29.00;57.40
63047;DHT22;62025;39.238;9.126;2023-07-16T05:36:44;29.00;57.10
63047;DHT22;62025;39.238;9.126;2023-07-16T05:39:10;29.00;56.50
63047;DHT22;62025;39.238;9.126;2023-07-16T05:41:40;29.10;55.40
63047;DHT22;62025;39.238;9.126;2023-07-16T05:44:07;29.20;55.40
63047;DHT22;62025;39.238;9.126;2023-07-16T05:46:33;29.30;54.20
63047;DHT22;62025;39.238;9.126;2023-07-16T05:48:59;29.30;53.90
63047;DHT22;62025;39.238;9.126;2023-07-16T05:51:26;29.40;52.90
63047;DHT22;62025;39.238;9.126;2023-07-16T05:53:52;29.40;52.30
63047;DHT22;62025;39.238;9.126;2023-07-16T05:56:18;29.40;52.10
63047;DHT22;62025;39.238;9.126;2023-07-16T05:58:44;29.50;51.90
63047;DHT22;62025;39.238;9.126;2023-07-16T06:01:10;29.60;51.80
63047;DHT22;62025;39.238;9.126;2023-07-16T06:03:36;29.60;51.50
63047;DHT22;62025;39.238;9.126;2023-07-16T06:06:02;29.70;53.80
63047;DHT22;62025;39.238;9.126;2023-07-16T06:08:28;29.70;54.50
63047;DHT22;62025;39.238;9.126;2023-07-16T06:10:54;29.70;54.70
63047;DHT22;62025;39.238;9.126;2023-07-16T06:13:21;29.80;54.50
63047;DHT22;62025;39.238;9.126;2023-07-16T06:15:47;29.90;54.20
63047;DHT22;62025;39.238;9.126;2023-07-16T06:18:13;29.90;53.80
63047;DHT22;62025;39.238;9.126;2023-07-16T06:20:43;30.10;53.60
63047;DHT22;62025;39.238;9.126;2023-07-16T06:23:11;30.10;53.40
63047;DHT22;62025;39.238;9.126;2023-07-16T06:25:37;30.30;53.30
63047;DHT22;62025;39.238;9.126;2023-07-16T06:28:06;30.30;52.90
63047;DHT22;62025;39.238;9.126;2023-07-16T06:30:32;30.40;52.30
63047;DHT22;62025;39.238;9.126;2023-07-16T06:32:59;30.40;52.40
63047;DHT22;62025;39.238;9.126;2023-07-16T06:35:25;30.50;52.70
63047;DHT22;62025;39.238;9.126;2023-07-16T06:37:51;30.60;52.50
63047;DHT22;62025;39.238;9.126;2023-07-16T06:40:17;30.70;52.50
63047;DHT22;62025;39.238;9.126;2023-07-16T06:42:43;30.70;51.70
63047;DHT22;62025;39.238;9.126;2023-07-16T06:45:10;30.70;51.90
63047;DHT22;62025;39.238;9.126;2023-07-16T06:47:36;30.70;51.60
63047;DHT22;62025;39.238;9.126;2023-07-16T06:50:02;30.90;51.20
63047;DHT22;62025;39.238;9.126;2023-07-16T06:52:28;30.90;50.80
63047;DHT22;62025;39.238;9.126;2023-07-16T06:54:57;31.00;50.70
63047;DHT22;62025;39.238;9.126;2023-07-16T06:57:23;31.10;50.60
63047;DHT22;62025;39.238;9.126;2023-07-16T06:59:49;31.10;50.00
63047;DHT22;62025;39.238;9.126;2023-07-16T07:02:18;31.10;49.60
63047;DHT22;62025;39.238;9.126;2023-07-16T07:04:45;31.20;49.80
63047;DHT22;62025;39.238;9.126;2023-07-16T07:07:11;31.10;49.20
63047;DHT22;62025;39.238;9.126;2023-07-16T07:09:37;31.10;49.30
63047;DHT22;62025;39.238;9.126;2023-07-16T07:12:03;31.40;48.80
63047;DHT22;62025;39.238;9.126;2023-07-16T07:14:29;31.40;48.60
63047;DHT22;62025;39.238;9.126;2023-07-16T07:16:55;31.60;47.40
63047;DHT22;62025;39.238;9.126;2023-07-16T07:19:21;31.40;46.70
63047;DHT22;62025;39.238;9.126;2023-07-16T07:21:47;31.50;47.20
63047;DHT22;62025;39.238;9.126;2023-07-16T07:24:13;31.40;47.10
63047;DHT22;62025;39.238;9.126;2023-07-16T07:26:39;31.40;47.00
63047;DHT22;62025;39.238;9.126;2023-07-16T07:29:05;31.30;46.50
63047;DHT22;62025;39.238;9.126;2023-07-16T07:31:31;31.30;46.90
63047;DHT22;62025;39.238;9.126;2023-07-16T07:33:57;31.50;47.00
63047;DHT22;62025;39.238;9.126;2023-07-16T07:36:24;31.50;47.30
63047;DHT22;62025;39.238;9.126;2023-07-16T07:38:50;31.60;47.30
63047;DHT22;62025;39.238;9.126;2023-07-16T07:41:16;31.80;47.10
63047;DHT22;62025;39.238;9.126;2023-07-16T07:43:42;31.60;47.30
63047;DHT22;62025;39.238;9.126;2023-07-16T07:46:08;31.90;47.20
63047;DHT22;62025;39.238;9.126;2023-07-16T07:48:35;32.40;46.20
63047;DHT22;62025;39.238;9.126;2023-07-16T07:51:01;32.50;45.40
63047;DHT22;62025;39.238;9.126;2023-07-16T07:53:27;32.40;45.60
63047;DHT22;62025;39.238;9.126;2023-07-16T07:55:54;32.50;45.30
63047;DHT22;62025;39.238;9.126;2023-07-16T07:58:20;32.90;44.50
63047;DHT22;62025;39.238;9.126;2023-07-16T08:00:46;33.10;44.20
63047;DHT22;62025;39.238;9.126;2023-07-16T08:03:12;32.80;45.40
63047;DHT22;62025;39.238;9.126;2023-07-16T08:05:38;32.90;46.20
63047;DHT22;62025;39.238;9.126;2023-07-16T08:08:04;32.70;47.20
63047;DHT22;62025;39.238;9.126;2023-07-16T08:10:30;32.90;47.50
63047;DHT22;62025;39.238;9.126;2023-07-16T08:12:56;32.50;48.10
63047;DHT22;62025;39.238;9.126;2023-07-16T08:15:22;32.50;48.70
63047;DHT22;62025;39.238;9.126;2023-07-16T08:17:48;32.50;48.70
63047;DHT22;62025;39.238;9.126;2023-07-16T08:20:14;32.60;48.80
63047;DHT22;62025;39.238;9.126;2023-07-16T08:22:40;32.80;48.00
63047;DHT22;62025;39.238;9.126;2023-07-16T08:25:07;32.60;48.40
63047;DHT22;62025;39.238;9.126;2023-07-16T08:27:33;33.00;48.10
63047;DHT22;62025;39.238;9.126;2023-07-16T08:29:59;33.50;46.70
63047;DHT22;62025;39.238;9.126;2023-07-16T08:32:25;33.40;46.20
63047;DHT22;62025;39.238;9.126;2023-07-16T08:34:52;33.40;46.00
63047;DHT22;62025;39.238;9.126;2023-07-16T08:37:17;33.40;45.80
63047;DHT22;62025;39.238;9.126;2023-07-16T08:39:43;33.30;45.80
63047;DHT22;62025;39.238;9.126;2023-07-16T08:42:10;33.40;45.40
63047;DHT22;62025;39.238;9.126;2023-07-16T08:44:37;33.60;45.20
63047;DHT22;62025;39.238;9.126;2023-07-16T08:47:05;33.90;44.80
63047;DHT22;62025;39.238;9.126;2023-07-16T08:49:34;33.90;44.70
63047;DHT22;62025;39.238;9.126;2023-07-16T08:52:01;34.00;44.10
63047;DHT22;62025;39.238;9.126;2023-07-16T08:54:28;34.00;44.00
63047;DHT22;62025;39.238;9.126;2023-07-16T08:56:54;34.00;43.70
63047;DHT22;62025;39.238;9.126;2023-07-16T08:59:21;34.00;43.00
63047;DHT22;62025;39.238;9.126;2023-07-16T09:01:47;34.00;42.70
63047;DHT22;62025;39.238;9.126;2023-07-16T09:04:15;34.20;41.80
63047;DHT22;62025;39.238;9.126;2023-07-16T09:06:42;34.30;40.40
63047;DHT22;62025;39.238;9.126;2023-07-16T09:09:08;34.30;39.90
63047;DHT22;62025;39.238;9.126;2023-07-16T09:11:48;34.50;39.10
63047;DHT22;62025;39.238;9.126;2023-07-16T09:14:18;34.60;38.90
63047;DHT22;62025;39.238;9.126;2023-07-16T09:16:52;34.50;38.50
63047;DHT22;62025;39.238;9.126;2023-07-16T09:19:18;34.60;38.10
63047;DHT22;62025;39.238;9.126;2023-07-16T09:21:49;34.60;37.80
63047;DHT22;62025;39.238;9.126;2023-07-16T09:24:16;34.90;36.70
63047;DHT22;62025;39.238;9.126;2023-07-16T09:26:53;34.90;36.90
63047;DHT22;62025;39.238;9.126;2023-07-16T09:29:21;35.00;35.80
63047;DHT22;62025;39.238;9.126;2023-07-16T09:32:00;35.50;35.00
63047;DHT22;62025;39.238;9.126;2023-07-16T09:34:31;35.30;35.50
63047;DHT22;62025;39.238;9.126;2023-07-16T09:36:58;34.60;36.20
63047;DHT22;62025;39.238;9.126;2023-07-16T09:39:25;34.90;36.20
63047;DHT22;62025;39.238;9.126;2023-07-16T09:41:52;34.70;36.40
63047;DHT22;62025;39.238;9.126;2023-07-16T09:44:19;35.00;36.00
63047;DHT22;62025;39.238;9.126;2023-07-16T09:46:46;35.30;35.00
63047;DHT22;62025;39.238;9.126;2023-07-16T09:49:14;35.40;34.10
63047;DHT22;62025;39.238;9.126;2023-07-16T09:51:42;34.90;34.20
63047;DHT22;62025;39.238;9.126;2023-07-16T09:54:13;35.00;33.20
63047;DHT22;62025;39.238;9.126;2023-07-16T09:56:48;35.30;32.80
63047;DHT22;62025;39.238;9.126;2023-07-16T09:59:17;35.20;32.50
63047;DHT22;62025;39.238;9.126;2023-07-16T10:01:46;35.40;32.50
63047;DHT22;62025;39.238;9.126;2023-07-16T10:04:19;35.40;31.50
63047;DHT22;62025;39.238;9.126;2023-07-16T10:06:57;35.10;30.60
63047;DHT22;62025;39.238;9.126;2023-07-16T10:09:54;35.50;31.10
63047;DHT22;62025;39.238;9.126;2023-07-16T10:12:23;35.80;31.60
63047;DHT22;62025;39.238;9.126;2023-07-16T10:14:55;35.80;31.00
63047;DHT22;62025;39.238;9.126;2023-07-16T10:17:30;35.70;30.30
63047;DHT22;62025;39.238;9.126;2023-07-16T10:27:45;35.90;26.50
63047;DHT22;62025;39.238;9.126;2023-07-16T10:30:12;35.90;28.30
63047;DHT22;62025;39.238;9.126;2023-07-16T10:32:38;35.90;29.00
63047;DHT22;62025;39.238;9.126;2023-07-16T10:35:06;35.50;30.10
63047;DHT22;62025;39.238;9.126;2023-07-16T10:37:37;35.00;31.10
63047;DHT22;62025;39.238;9.126;2023-07-16T10:40:04;35.00;31.60
63047;DHT22;62025;39.238;9.126;2023-07-16T10:42:32;35.20;31.40
63047;DHT22;62025;39.238;9.126;2023-07-16T10:45:00;35.10;31.50
63047;DHT22;62025;39.238;9.126;2023-07-16T10:47:32;35.00;32.30
63047;DHT22;62025;39.238;9.126;2023-07-16T10:50:07;35.10;34.20
63047;DHT22;62025;39.238;9.126;2023-07-16T10:52:36;35.10;34.00
63047;DHT22;62025;39.238;9.126;2023-07-16T10:55:03;34.70;32.10
63047;DHT22;62025;39.238;9.126;2023-07-16T10:57:30;34.90;33.60
63047;DHT22;62025;39.238;9.126;2023-07-16T10:59:58;35.00;31.60
63047;DHT22;62025;39.238;9.126;2023-07-16T11:02:25;35.00;34.20
63047;DHT22;62025;39.238;9.126;2023-07-16T11:04:52;34.90;33.50
63047;DHT22;62025;39.238;9.126;2023-07-16T11:07:23;34.90;35.00
63047;DHT22;62025;39.238;9.126;2023-07-16T11:09:51;35.20;35.20
63047;DHT22;62025;39.238;9.126;2023-07-16T11:12:22;35.10;35.50
63047;DHT22;62025;39.238;9.126;2023-07-16T11:14:51;35.00;36.10
63047;DHT22;62025;39.238;9.126;2023-07-16T11:17:20;34.90;37.80
63047;DHT22;62025;39.238;9.126;2023-07-16T11:19:49;34.80;39.20
63047;DHT22;62025;39.238;9.126;2023-07-16T11:22:17;34.50;39.50
63047;DHT22;62025;39.238;9.126;2023-07-16T11:24:52;33.90;39.70
63047;DHT22;62025;39.238;9.126;2023-07-16T11:27:20;34.00;40.90
63047;DHT22;62025;39.238;9.126;2023-07-16T11:29:56;34.30;39.70
63047;DHT22;62025;39.238;9.126;2023-07-16T11:32:42;34.00;41.60
63047;DHT22;62025;39.238;9.126;2023-07-16T11:35:15;33.90;41.10
63047;DHT22;62025;39.238;9.126;2023-07-16T11:37:42;33.70;43.40
63047;DHT22;62025;39.238;9.126;2023-07-16T11:40:10;33.70;43.50
63047;DHT22;62025;39.238;9.126;2023-07-16T11:42:40;34.10;43.00
63047;DHT22;62025;39.238;9.126;2023-07-16T11:45:20;34.00;41.80
63047;DHT22;62025;39.238;9.126;2023-07-16T11:47:52;33.70;44.20
63047;DHT22;62025;39.238;9.126;2023-07-16T11:50:19;33.20;46.00
63047;DHT22;62025;39.238;9.126;2023-07-16T11:52:56;33.70;46.10
63047;DHT22;62025;39.238;9.126;2023-07-16T11:55:24;33.50;48.70
63047;DHT22;62025;39.238;9.126;2023-07-16T11:57:51;33.50;48.90
63047;DHT22;62025;39.238;9.126;2023-07-16T12:00:17;33.70;49.80
63047;DHT22;62025;39.238;9.126;2023-07-16T12:02:44;33.70;48.70
63047;DHT22;62025;39.238;9.126;2023-07-16T12:05:18;33.40;48.00
63047;DHT22;62025;39.238;9.126;2023-07-16T12:07:44;33.50;50.10
63047;DHT22;62025;39.238;9.126;2023-07-16T12:10:10;33.60;50.30
63047;DHT22;62025;39.238;9.126;2023-07-16T12:12:36;33.50;50.80
63047;DHT22;62025;39.238;9.126;2023-07-16T12:15:08;33.50;50.80
63047;DHT22;62025;39.238;9.126;2023-07-16T12:17:34;33.60;51.40
63047;DHT22;62025;39.238;9.126;2023-07-16T12:20:02;33.50;52.90
63047;DHT22;62025;39.238;9.126;2023-07-16T12:22:29;33.50;53.50
63047;DHT22;62025;39.238;9.126;2023-07-16T12:24:55;33.00;55.60
63047;DHT22;62025;39.238;9.126;2023-07-16T12:27:21;33.20;55.20
63047;DHT22;62025;39.238;9.126;2023-07-16T12:29:47;33.40;54.90
63047;DHT22;62025;39.238;9.126;2023-07-16T12:32:14;33.00;55.70
63047;DHT22;62025;39.238;9.126;2023-07-16T12:34:40;32.90;56.60
63047;DHT22;62025;39.238;9.126;2023-07-16T12:37:06;33.20;56.50
63047;DHT22;62025;39.238;9.126;2023-07-16T12:39:32;33.20;56.50
63047;DHT22;62025;39.238;9.126;2023-07-16T12:41:58;33.40;56.40
63047;DHT22;62025;39.238;9.126;2023-07-16T12:44:24;33.50;55.70
63047;DHT22;62025;39.238;9.126;2023-07-16T12:46:50;33.60;55.30
63047;DHT22;62025;39.238;9.126;2023-07-16T12:49:16;33.50;52.90
63047;DHT22;62025;39.238;9.126;2023-07-16T12:51:42;33.10;54.10
63047;DHT22;62025;39.238;9.126;2023-07-16T12:54:08;33.00;55.30
63047;DHT22;62025;39.238;9.126;2023-07-16T12:56:34;32.90;55.50
63047;DHT22;62025;39.238;9.126;2023-07-16T12:59:00;32.90;55.50
63047;DHT22;62025;39.238;9.126;2023-07-16T13:01:26;32.80;55.00
63047;DHT22;62025;39.238;9.126;2023-07-16T13:03:52;32.90;55.10
63047;DHT22;62025;39.238;9.126;2023-07-16T13:06:18;33.00;56.80
63047;DHT22;62025;39.238;9.126;2023-07-16T13:08:44;32.90;52.60
63047;DHT22;62025;39.238;9.126;2023-07-16T13:11:10;32.90;52.30
63047;DHT22;62025;39.238;9.126;2023-07-16T13:13:36;32.90;53.20
63047;DHT22;62025;39.238;9.126;2023-07-16T13:16:02;32.90;56.80
63047;DHT22;62025;39.238;9.126;2023-07-16T13:18:28;32.80;56.90
63047;DHT22;62025;39.238;9.126;2023-07-16T13:20:54;32.90;56.10
63047;DHT22;62025;39.238;9.126;2023-07-16T13:23:20;32.80;56.30
63047;DHT22;62025;39.238;9.126;2023-07-16T13:25:46;33.00;55.10
63047;DHT22;62025;39.238;9.126;2023-07-16T13:28:16;32.90;57.50
63047;DHT22;62025;39.238;9.126;2023-07-16T13:30:42;32.90;53.80
63047;DHT22;62025;39.238;9.126;2023-07-16T13:33:08;32.50;55.50
63047;DHT22;62025;39.238;9.126;2023-07-16T13:35:34;32.70;54.60
63047;DHT22;62025;39.238;9.126;2023-07-16T13:38:00;32.80;55.00
63047;DHT22;62025;39.238;9.126;2023-07-16T13:40:27;32.70;55.10
63047;DHT22;62025;39.238;9.126;2023-07-16T13:42:53;32.40;56.50
63047;DHT22;62025;39.238;9.126;2023-07-16T13:45:19;32.50;57.20
63047;DHT22;62025;39.238;9.126;2023-07-16T13:47:45;32.40;56.60
63047;DHT22;62025;39.238;9.126;2023-07-16T13:50:11;32.40;56.60
63047;DHT22;62025;39.238;9.126;2023-07-16T13:52:37;32.40;56.80
63047;DHT22;62025;39.238;9.126;2023-07-16T13:55:04;32.40;56.80
63047;DHT22;62025;39.238;9.126;2023-07-16T13:57:30;32.40;56.00
63047;DHT22;62025;39.238;9.126;2023-07-16T13:59:56;32.50;58.70
63047;DHT22;62025;39.238;9.126;2023-07-16T14:02:22;32.50;59.10
63047;DHT22;62025;39.238;9.126;2023-07-16T14:04:48;32.40;60.70
63047;DHT22;62025;39.238;9.126;2023-07-16T14:07:14;32.60;60.20
63047;DHT22;62025;39.238;9.126;2023-07-16T14:09:40;32.60;60.40
63047;DHT22;62025;39.238;9.126;2023-07-16T14:12:06;32.80;60.40
63047;DHT22;62025;39.238;9.126;2023-07-16T14:14:32;32.60;61.10
63047;DHT22;62025;39.238;9.126;2023-07-16T14:16:59;32.70;61.60
63047;DHT22;62025;39.238;9.126;2023-07-16T14:19:25;32.80;60.50
63047;DHT22;62025;39.238;9.126;2023-07-16T14:21:51;32.80;61.20
63047;DHT22;62025;39.238;9.126;2023-07-16T14:24:17;32.50;61.60
63047;DHT22;62025;39.238;9.126;2023-07-16T14:26:43;32.40;60.90
63047;DHT22;62025;39.238;9.126;2023-07-16T14:29:08;32.40;60.70
63047;DHT22;62025;39.238;9.126;2023-07-16T14:31:36;32.60;59.00
63047;DHT22;62025;39.238;9.126;2023-07-16T14:34:03;32.60;58.90
63047;DHT22;62025;39.238;9.126;2023-07-16T14:36:29;32.60;58.70
63047;DHT22;62025;39.238;9.126;2023-07-16T14:38:55;32.60;57.50
63047;DHT22;62025;39.238;9.126;2023-07-16T14:41:21;32.50;55.10
63047;DHT22;62025;39.238;9.126;2023-07-16T14:43:47;32.50;58.20
63047;DHT22;62025;39.238;9.126;2023-07-16T14:46:16;32.40;57.50
63047;DHT22;62025;39.238;9.126;2023-07-16T14:48:45;32.40;59.70
63047;DHT22;62025;39.238;9.126;2023-07-16T14:51:12;32.30;57.30
63047;DHT22;62025;39.238;9.126;2023-07-16T14:53:38;32.40;57.80
63047;DHT22;62025;39.238;9.126;2023-07-16T14:56:05;32.40;60.40
63047;DHT22;62025;39.238;9.126;2023-07-16T14:58:33;32.30;59.30
63047;DHT22;62025;39.238;9.126;2023-07-16T15:01:02;32.20;60.30
63047;DHT22;62025;39.238;9.126;2023-07-16T15:03:36;32.10;61.60
63047;DHT22;62025;39.238;9.126;2023-07-16T15:06:03;32.00;62.40
63047;DHT22;62025;39.238;9.126;2023-07-16T15:08:29;32.10;61.30
63047;DHT22;62025;39.238;9.126;2023-07-16T15:10:57;32.00;61.70
63047;DHT22;62025;39.238;9.126;2023-07-16T15:13:24;32.00;62.00
63047;DHT22;62025;39.238;9.126;2023-07-16T15:15:53;32.00;62.30
63047;DHT22;62025;39.238;9.126;2023-07-16T15:18:19;31.90;63.90
63047;DHT22;62025;39.238;9.126;2023-07-16T15:20:49;31.80;64.40
63047;DHT22;62025;39.238;9.126;2023-07-16T15:23:15;31.80;65.90
63047;DHT22;62025;39.238;9.126;2023-07-16T15:25:41;31.80;65.30
63047;DHT22;62025;39.238;9.126;2023-07-16T15:28:09;31.70;64.60
63047;DHT22;62025;39.238;9.126;2023-07-16T15:30:37;31.90;64.10
63047;DHT22;62025;39.238;9.126;2023-07-16T15:33:03;31.90;64.20
63047;DHT22;62025;39.238;9.126;2023-07-16T15:35:29;31.80;64.30
63047;DHT22;62025;39.238;9.126;2023-07-16T15:37:55;31.70;65.50
63047;DHT22;62025;39.238;9.126;2023-07-16T15:40:22;31.60;64.50
63047;DHT22;62025;39.238;9.126;2023-07-16T15:42:48;31.70;64.30